createdAt,value
2023-05-21T00:00:26.785Z,11.81
2023-05-21T00:01:26.768Z,11.77
2023-05-21T00:02:26.761Z,11.74
2023-05-21T00:03:26.797Z,11.71
2023-05-21T00:04:26.756Z,11.7
2023-05-21T00:05:26.821Z,11.67
2023-05-21T00:06:26.840Z,11.63
2023-05-21T00:07:27.018Z,11.61
2023-05-21T00:08:27.006Z,11.6
2023-05-21T00:09:26.757Z,11.56
2023-05-21T00:10:26.782Z,11.53
2023-05-21T00:11:29.095Z,11.51
2023-05-21T00:12:31.974Z,11.49
2023-05-21T00:14:26.758Z,11.46
2023-05-21T00:15:26.775Z,11.47
2023-05-21T00:16:26.882Z,11.47
2023-05-21T00:17:26.934Z,11.47
2023-05-21T00:18:26.764Z,11.45
2023-05-21T00:19:26.833Z,11.44
2023-05-21T00:20:26.790Z,11.44
2023-05-21T00:22:26.903Z,11.41
2023-05-21T00:23:26.946Z,11.39
2023-05-21T00:24:26.857Z,11.38
2023-05-21T00:25:26.912Z,11.37
2023-05-21T00:26:26.758Z,11.36
2023-05-21T00:27:27.011Z,11.35
2023-05-21T00:28:26.760Z,11.33
2023-05-21T00:29:26.760Z,11.31
2023-05-21T00:30:26.761Z,11.28
2023-05-21T00:31:26.779Z,11.26
2023-05-21T00:32:27.214Z,11.25
2023-05-21T00:33:30.013Z,11.22
2023-05-21T00:34:32.407Z,11.19
2023-05-21T00:36:26.827Z,11.16
2023-05-21T00:37:27.104Z,11.14
2023-05-21T00:38:26.952Z,11.13
2023-05-21T00:39:26.940Z,11.11
2023-05-21T00:40:27.035Z,11.11
2023-05-21T00:41:26.757Z,11.1
2023-05-21T00:42:26.999Z,11.09
2023-05-21T00:43:26.771Z,11.08
2023-05-21T00:44:26.772Z,11.07
2023-05-21T00:45:26.816Z,11.04
2023-05-21T00:46:26.817Z,11.03
2023-05-21T00:47:27.110Z,11.01
2023-05-21T00:48:26.756Z,11
2023-05-21T00:49:26.765Z,10.99
2023-05-21T00:50:26.824Z,10.96
2023-05-21T00:51:26.941Z,10.94
2023-05-21T00:52:27.193Z,10.91
2023-05-21T00:53:27.185Z,10.89
2023-05-21T00:54:30.141Z,10.86
2023-05-21T00:55:32.541Z,10.84
2023-05-21T00:57:27.157Z,10.8
2023-05-21T00:58:26.768Z,10.79
2023-05-21T00:59:26.774Z,10.78
2023-05-21T01:00:26.764Z,10.77
2023-05-21T01:01:26.799Z,10.77
2023-05-21T01:02:27.472Z,10.76
2023-05-21T01:03:26.974Z,10.75
2023-05-21T01:04:26.865Z,10.75
2023-05-21T01:05:26.759Z,10.74
2023-05-21T01:06:26.757Z,10.74
2023-05-21T01:07:27.012Z,10.74
2023-05-21T01:08:26.777Z,10.73
2023-05-21T01:09:26.760Z,10.73
2023-05-21T01:10:26.756Z,10.72
2023-05-21T01:11:26.750Z,10.71
2023-05-21T01:12:26.948Z,10.69
2023-05-21T01:13:26.773Z,10.67
2023-05-21T01:14:26.792Z,10.66
2023-05-21T01:15:30.248Z,10.65
2023-05-21T01:16:32.658Z,10.65
2023-05-21T01:18:26.808Z,10.63
2023-05-21T01:19:26.853Z,10.62
2023-05-21T01:20:26.755Z,10.61
2023-05-21T01:21:26.766Z,10.59
2023-05-21T01:22:27.104Z,10.57
2023-05-21T01:23:26.759Z,10.55
2023-05-21T01:24:26.766Z,10.52
2023-05-21T01:25:26.756Z,10.5
2023-05-21T01:26:26.784Z,10.48
2023-05-21T01:27:26.755Z,10.45
2023-05-21T01:28:26.760Z,10.43
2023-05-21T01:29:26.754Z,10.41
2023-05-21T01:30:26.757Z,10.39
2023-05-21T01:31:26.761Z,10.37
2023-05-21T01:32:27.145Z,10.35
2023-05-21T01:33:26.807Z,10.35
2023-05-21T01:34:26.761Z,10.34
2023-05-21T01:35:26.841Z,10.33
2023-05-21T01:36:30.305Z,10.31
2023-05-21T01:37:32.671Z,10.29
2023-05-21T01:39:26.758Z,10.26
2023-05-21T01:40:26.774Z,10.24
2023-05-21T01:41:26.763Z,10.21
2023-05-21T01:42:26.960Z,10.19
2023-05-21T01:43:26.766Z,10.16
2023-05-21T01:44:26.762Z,10.12
2023-05-21T01:45:26.779Z,10.1
2023-05-21T01:46:26.801Z,10.09
2023-05-21T01:47:27.036Z,10.08
2023-05-21T01:48:26.760Z,10.06
2023-05-21T01:49:26.763Z,10.05
2023-05-21T01:50:26.803Z,10.03
2023-05-21T01:51:26.767Z,10.02
2023-05-21T01:52:26.958Z,10.01
2023-05-21T01:53:26.877Z,9.98
2023-05-21T01:54:26.765Z,9.96
2023-05-21T01:55:26.773Z,9.95
2023-05-21T01:56:26.994Z,9.93
2023-05-21T01:57:30.511Z,9.94
2023-05-21T01:58:33.316Z,9.95
2023-05-21T02:00:26.762Z,9.98
2023-05-21T02:01:26.815Z,9.99
2023-05-21T02:02:27.082Z,9.98
2023-05-21T02:03:26.866Z,9.98
2023-05-21T02:04:26.796Z,9.98
2023-05-21T02:05:26.786Z,9.97
2023-05-21T02:06:26.763Z,9.94
2023-05-21T02:07:26.920Z,9.93
2023-05-21T02:08:26.764Z,9.92
2023-05-21T02:09:26.824Z,9.89
2023-05-21T02:10:26.769Z,9.89
2023-05-21T02:11:26.756Z,9.91
2023-05-21T02:12:26.916Z,9.93
2023-05-21T02:13:27.076Z,9.94
2023-05-21T02:14:26.972Z,9.94
2023-05-21T02:15:26.760Z,9.93
2023-05-21T02:16:26.775Z,9.94
2023-05-21T02:17:27.171Z,9.94
2023-05-21T02:18:30.607Z,9.94
2023-05-21T02:19:33.023Z,9.92
2023-05-21T02:21:26.769Z,9.9
2023-05-21T02:22:27.160Z,9.89
2023-05-21T02:23:26.762Z,9.89
2023-05-21T02:24:26.762Z,9.89
2023-05-21T02:25:26.797Z,9.91
2023-05-21T02:26:26.758Z,9.93
2023-05-21T02:27:26.974Z,9.94
2023-05-21T02:28:26.772Z,9.93
2023-05-21T02:29:26.797Z,9.91
2023-05-21T02:30:26.780Z,9.89
2023-05-21T02:31:26.776Z,9.86
2023-05-21T02:32:27.051Z,9.83
2023-05-21T02:33:26.770Z,9.8
2023-05-21T02:34:26.845Z,9.79
2023-05-21T02:35:26.944Z,9.77
2023-05-21T02:36:26.772Z,9.76
2023-05-21T02:37:26.894Z,9.75
2023-05-21T02:38:27.218Z,9.73
2023-05-21T02:39:30.646Z,9.72
2023-05-21T02:40:33.075Z,9.72
2023-05-21T02:42:26.944Z,9.71
2023-05-21T02:43:26.769Z,9.69
2023-05-21T02:44:26.770Z,9.67
2023-05-21T02:45:26.767Z,9.67
2023-05-21T02:46:26.825Z,9.65
2023-05-21T02:47:27.015Z,9.64
2023-05-21T02:48:26.818Z,9.65
2023-05-21T02:49:26.782Z,9.65
2023-05-21T02:50:26.757Z,9.64
2023-05-21T02:51:26.806Z,9.63
2023-05-21T02:52:27.085Z,9.63
2023-05-21T02:53:26.768Z,9.65
2023-05-21T02:54:26.784Z,9.67
2023-05-21T02:55:26.771Z,9.68
2023-05-21T02:56:26.785Z,9.68
2023-05-21T02:57:27.121Z,9.68
2023-05-21T02:58:26.770Z,9.67
2023-05-21T02:59:27.380Z,9.67
2023-05-21T03:00:30.336Z,9.66
2023-05-21T03:01:33.744Z,9.65
2023-05-21T03:03:26.823Z,9.63
2023-05-21T03:04:26.754Z,9.61
2023-05-21T03:05:26.758Z,9.6
2023-05-21T03:06:26.791Z,9.59
2023-05-21T03:07:27.004Z,9.59
2023-05-21T03:08:26.755Z,9.57
2023-05-21T03:09:26.775Z,9.56
2023-05-21T03:10:26.762Z,9.54
2023-05-21T03:11:26.768Z,9.53
2023-05-21T03:12:27.046Z,9.52
2023-05-21T03:13:26.800Z,9.51
2023-05-21T03:14:26.765Z,9.49
2023-05-21T03:15:26.755Z,9.47
2023-05-21T03:16:26.795Z,9.46
2023-05-21T03:17:26.966Z,9.45
2023-05-21T03:18:26.761Z,9.44
2023-05-21T03:19:26.814Z,9.43
2023-05-21T03:20:27.418Z,9.42
2023-05-21T03:21:30.866Z,9.41
2023-05-21T03:22:33.815Z,9.41
2023-05-21T03:24:26.787Z,9.4
2023-05-21T03:25:26.789Z,9.39
2023-05-21T03:26:26.767Z,9.39
2023-05-21T03:27:26.893Z,9.39
2023-05-21T03:28:26.761Z,9.39
2023-05-21T03:29:26.787Z,9.39
2023-05-21T03:30:26.766Z,9.39
2023-05-21T03:31:26.829Z,9.38
2023-05-21T03:32:27.003Z,9.36
2023-05-21T03:33:26.768Z,9.36
2023-05-21T03:34:26.774Z,9.34
2023-05-21T03:35:26.779Z,9.34
2023-05-21T03:36:26.762Z,9.33
2023-05-21T03:37:26.947Z,9.32
2023-05-21T03:38:26.778Z,9.31
2023-05-21T03:39:26.778Z,9.29
2023-05-21T03:40:26.779Z,9.29
2023-05-21T03:41:27.738Z,9.29
2023-05-21T03:42:30.959Z,9.29
2023-05-21T03:43:33.881Z,9.31
2023-05-21T03:45:26.804Z,9.31
2023-05-21T03:46:26.799Z,9.32
2023-05-21T03:47:27.169Z,9.31
2023-05-21T03:48:26.771Z,9.31
2023-05-21T03:49:26.782Z,9.31
2023-05-21T03:50:26.787Z,9.31
2023-05-21T03:51:26.772Z,9.31
2023-05-21T03:52:26.788Z,9.31
2023-05-21T03:53:26.776Z,9.31
2023-05-21T03:54:26.760Z,9.29
2023-05-21T03:55:26.793Z,9.3
2023-05-21T03:56:26.780Z,9.32
2023-05-21T03:57:27.186Z,9.33
2023-05-21T03:58:26.790Z,9.34
2023-05-21T03:59:26.775Z,9.34
2023-05-21T04:00:26.765Z,9.35
2023-05-21T04:01:26.759Z,9.36
2023-05-21T04:02:27.642Z,9.38
2023-05-21T04:03:31.138Z,9.4
2023-05-21T04:04:34.036Z,9.41
2023-05-21T04:06:26.812Z,9.45
2023-05-21T04:07:26.969Z,9.47
2023-05-21T04:08:26.767Z,9.51
2023-05-21T04:09:26.765Z,9.53
2023-05-21T04:10:26.777Z,9.55
2023-05-21T04:11:26.770Z,9.57
2023-05-21T04:12:26.915Z,9.58
2023-05-21T04:13:26.760Z,9.6
2023-05-21T04:14:26.758Z,9.62
2023-05-21T04:15:26.760Z,9.64
2023-05-21T04:16:26.798Z,9.65
2023-05-21T04:17:27.168Z,9.68
2023-05-21T04:18:26.781Z,9.69
2023-05-21T04:19:26.836Z,9.72
2023-05-21T04:20:26.769Z,9.74
2023-05-21T04:21:26.811Z,9.77
2023-05-21T04:22:26.950Z,9.8
2023-05-21T04:23:26.764Z,9.82
2023-05-21T04:24:28.273Z,9.84
2023-05-21T04:25:31.779Z,9.85
2023-05-21T04:26:33.049Z,9.87
2023-05-21T04:27:27.026Z,9.91
2023-05-21T04:28:26.768Z,9.92
2023-05-21T04:29:26.781Z,9.94
2023-05-21T04:30:26.766Z,9.95
2023-05-21T04:31:26.794Z,9.97
2023-05-21T04:32:27.035Z,9.98
2023-05-21T04:33:26.760Z,10
2023-05-21T04:34:26.765Z,10.01
2023-05-21T04:35:26.778Z,10.03
2023-05-21T04:36:26.780Z,10.04
2023-05-21T04:37:27.019Z,10.06
2023-05-21T04:38:26.764Z,10.09
2023-05-21T04:39:26.764Z,10.11
2023-05-21T04:40:26.766Z,10.13
2023-05-21T04:41:26.765Z,10.16
2023-05-21T04:42:27.024Z,10.19
2023-05-21T04:43:26.785Z,10.22
2023-05-21T04:44:26.760Z,10.25
2023-05-21T04:45:28.266Z,10.28
2023-05-21T04:46:31.856Z,10.3
2023-05-21T04:47:33.761Z,10.34
2023-05-21T04:48:26.831Z,10.38
2023-05-21T04:49:26.850Z,10.41
2023-05-21T04:50:26.758Z,10.42
2023-05-21T04:51:26.766Z,10.45
2023-05-21T04:52:27.150Z,10.48
2023-05-21T04:53:26.791Z,10.51
2023-05-21T04:54:26.770Z,10.53
2023-05-21T04:55:26.760Z,10.57
2023-05-21T04:56:26.774Z,10.6
2023-05-21T04:57:26.823Z,10.63
2023-05-21T04:58:26.758Z,10.66
2023-05-21T04:59:26.774Z,10.69
2023-05-21T05:00:26.768Z,10.72
2023-05-21T05:01:26.872Z,10.76
2023-05-21T05:02:27.096Z,10.79
2023-05-21T05:03:26.816Z,10.83
2023-05-21T05:04:26.784Z,10.87
2023-05-21T05:05:26.759Z,10.91
2023-05-21T05:06:28.340Z,10.93
2023-05-21T05:07:31.920Z,10.95
2023-05-21T05:08:33.213Z,10.99
2023-05-21T05:09:26.787Z,11.01
2023-05-21T05:10:26.781Z,11.04
2023-05-21T05:11:26.828Z,11.07
2023-05-21T05:12:26.967Z,11.09
2023-05-21T05:13:26.824Z,11.13
2023-05-21T05:14:26.765Z,11.16
2023-05-21T05:15:26.778Z,11.19
2023-05-21T05:16:26.795Z,11.23
2023-05-21T05:17:26.990Z,11.26
2023-05-21T05:18:26.776Z,11.3
2023-05-21T05:19:26.874Z,11.33
2023-05-21T05:20:26.764Z,11.37
2023-05-21T05:21:26.782Z,11.41
2023-05-21T05:22:27.110Z,11.46
2023-05-21T05:23:26.761Z,11.51
2023-05-21T05:24:26.765Z,11.54
2023-05-21T05:25:26.763Z,11.6
2023-05-21T05:26:26.782Z,11.66
2023-05-21T05:27:28.446Z,11.72
2023-05-21T05:28:31.975Z,11.75
2023-05-21T05:29:33.320Z,11.83
2023-05-21T05:30:26.767Z,11.88
2023-05-21T05:31:26.962Z,11.91
2023-05-21T05:32:26.968Z,11.94
2023-05-21T05:33:26.773Z,12.01
2023-05-21T05:34:26.858Z,12.03
2023-05-21T05:35:26.766Z,12.04
2023-05-21T05:36:26.771Z,12.07
2023-05-21T05:37:26.999Z,12.08
2023-05-21T05:38:26.764Z,12.12
2023-05-21T05:39:26.783Z,12.11
2023-05-21T05:40:26.772Z,12.17
2023-05-21T05:41:26.773Z,12.22
2023-05-21T05:42:26.981Z,12.22
2023-05-21T05:43:26.782Z,12.21
2023-05-21T05:44:26.784Z,12.23
2023-05-21T05:45:26.775Z,12.29
2023-05-21T05:46:26.792Z,12.31
2023-05-21T05:47:26.983Z,12.31
2023-05-21T05:48:28.535Z,12.33
2023-05-21T05:49:31.583Z,12.35
2023-05-21T05:50:33.420Z,12.41
2023-05-21T05:51:26.767Z,12.46
2023-05-21T05:52:27.040Z,12.47
2023-05-21T05:53:26.763Z,12.53
2023-05-21T05:54:26.759Z,12.52
2023-05-21T05:55:26.922Z,12.56
2023-05-21T05:56:26.776Z,12.52
2023-05-21T05:57:27.102Z,12.59
2023-05-21T05:58:26.759Z,12.63
2023-05-21T05:59:26.764Z,12.7
2023-05-21T06:00:26.775Z,12.67
2023-05-21T06:01:26.757Z,12.74
2023-05-21T06:02:27.097Z,12.75
2023-05-21T06:03:26.825Z,12.72
2023-05-21T06:04:26.765Z,12.74
2023-05-21T06:05:26.780Z,12.8
2023-05-21T06:06:26.758Z,12.78
2023-05-21T06:07:27.030Z,12.85
2023-05-21T06:08:26.757Z,12.93
2023-05-21T06:09:28.680Z,12.96
2023-05-21T06:10:31.740Z,12.9
2023-05-21T06:11:33.512Z,12.9
2023-05-21T06:12:27.159Z,12.96
2023-05-21T06:13:26.765Z,12.9
2023-05-21T06:14:26.778Z,12.96
2023-05-21T06:15:26.770Z,12.93
2023-05-21T06:16:26.847Z,12.94
2023-05-21T06:17:27.034Z,12.88
2023-05-21T06:18:26.777Z,12.86
2023-05-21T06:19:26.839Z,12.88
2023-05-21T06:20:26.762Z,12.84
2023-05-21T06:21:26.796Z,12.93
2023-05-21T06:22:27.032Z,12.95
2023-05-21T06:23:26.867Z,13.04
2023-05-21T06:24:26.764Z,13.06
2023-05-21T06:25:26.755Z,13.09
2023-05-21T06:26:26.791Z,13.16
2023-05-21T06:27:26.986Z,13.21
2023-05-21T06:28:26.759Z,13.18
2023-05-21T06:29:26.760Z,13.09
2023-05-21T06:30:28.719Z,13.08
2023-05-21T06:31:31.788Z,13.16
2023-05-21T06:32:33.638Z,13.22
2023-05-21T06:33:26.907Z,13.17
2023-05-21T06:34:26.764Z,13.19
2023-05-21T06:35:26.778Z,13.23
2023-05-21T06:36:26.768Z,13.23
2023-05-21T06:37:27.047Z,13.23
2023-05-21T06:38:26.755Z,13.28
2023-05-21T06:39:26.754Z,13.33
2023-05-21T06:40:26.770Z,13.41
2023-05-21T06:41:26.771Z,13.47
2023-05-21T06:42:27.016Z,13.43
2023-05-21T06:43:26.772Z,13.54
2023-05-21T06:44:26.768Z,13.57
2023-05-21T06:45:26.774Z,13.53
2023-05-21T06:46:26.852Z,13.57
2023-05-21T06:47:26.990Z,13.61
2023-05-21T06:48:26.769Z,13.54
2023-05-21T06:49:26.787Z,13.54
2023-05-21T06:50:26.753Z,13.51
2023-05-21T06:51:28.822Z,13.47
2023-05-21T06:52:31.793Z,13.47
2023-05-21T06:53:33.689Z,13.47
2023-05-21T06:54:27.783Z,13.58
2023-05-21T06:55:26.780Z,13.62
2023-05-21T06:56:26.772Z,13.65
2023-05-21T06:57:27.034Z,13.7
2023-05-21T06:58:26.764Z,13.76
2023-05-21T06:59:26.776Z,13.77
2023-05-21T07:00:26.830Z,13.83
2023-05-21T07:01:26.784Z,13.87
2023-05-21T07:02:27.158Z,13.96
2023-05-21T07:03:26.833Z,13.93
2023-05-21T07:04:26.760Z,14.01
2023-05-21T07:05:26.760Z,14.05
2023-05-21T07:06:26.765Z,14.12
2023-05-21T07:07:26.924Z,14.23
2023-05-21T07:08:26.768Z,14.28
2023-05-21T07:09:26.760Z,14.31
2023-05-21T07:10:26.832Z,14.38
2023-05-21T07:11:26.770Z,14.4
2023-05-21T07:12:28.938Z,14.53
2023-05-21T07:13:31.882Z,14.64
2023-05-21T07:14:33.856Z,14.69
2023-05-21T07:15:26.761Z,14.74
2023-05-21T07:16:26.769Z,14.75
2023-05-21T07:17:27.021Z,14.8
2023-05-21T07:18:26.758Z,14.71
2023-05-21T07:19:26.851Z,14.61
2023-05-21T07:20:26.769Z,14.56
2023-05-21T07:21:26.784Z,14.52
2023-05-21T07:22:29.999Z,14.42
2023-05-21T07:23:26.758Z,14.53
2023-05-21T07:24:26.783Z,14.61
2023-05-21T07:25:26.757Z,14.62
2023-05-21T07:26:26.759Z,14.66
2023-05-21T07:27:27.070Z,14.8
2023-05-21T07:28:26.754Z,14.72
2023-05-21T07:29:26.796Z,14.67
2023-05-21T07:30:26.765Z,14.68
2023-05-21T07:31:26.788Z,14.62
2023-05-21T07:32:27.055Z,14.6
2023-05-21T07:33:29.110Z,14.68
2023-05-21T07:34:31.970Z,14.68
2023-05-21T07:36:26.766Z,14.79
2023-05-21T07:37:27.194Z,14.96
2023-05-21T07:38:26.766Z,14.98
2023-05-21T07:39:26.773Z,15.02
2023-05-21T07:40:26.788Z,14.98
2023-05-21T07:41:26.767Z,14.96
2023-05-21T07:42:26.903Z,14.9
2023-05-21T07:43:26.763Z,14.88
2023-05-21T07:44:26.779Z,14.9
2023-05-21T07:45:26.802Z,14.84
2023-05-21T07:46:26.802Z,14.85
2023-05-21T07:47:27.085Z,14.9
2023-05-21T07:48:26.772Z,14.89
2023-05-21T07:49:26.766Z,14.81
2023-05-21T07:50:26.783Z,14.87
2023-05-21T07:51:26.790Z,14.89
2023-05-21T07:52:27.164Z,14.95
2023-05-21T07:53:26.761Z,14.93
2023-05-21T07:54:26.914Z,14.98
2023-05-21T07:55:29.729Z,15
2023-05-21T07:56:32.075Z,15.03
2023-05-21T07:57:33.967Z,15.08
2023-05-21T07:58:26.768Z,15.06
2023-05-21T07:59:26.793Z,15.07
2023-05-21T08:00:26.792Z,15.01
2023-05-21T08:01:26.767Z,15.04
2023-05-21T08:02:27.084Z,15.04
2023-05-21T08:03:26.863Z,15.14
2023-05-21T08:04:26.838Z,15.21
2023-05-21T08:05:26.769Z,15.29
2023-05-21T08:06:26.764Z,15.25
2023-05-21T08:07:27.130Z,15.26
2023-05-21T08:08:26.770Z,15.25
2023-05-21T08:09:26.799Z,15.3
2023-05-21T08:10:26.774Z,15.28
2023-05-21T08:11:26.763Z,15.33
2023-05-21T08:12:26.949Z,15.36
2023-05-21T08:13:26.757Z,15.48
2023-05-21T08:14:26.801Z,15.57
2023-05-21T08:15:26.962Z,15.76
2023-05-21T08:16:29.810Z,15.83
2023-05-21T08:17:32.112Z,15.99
2023-05-21T08:19:26.858Z,16.22
2023-05-21T08:20:26.762Z,16.49
2023-05-21T08:21:26.767Z,16.64
2023-05-21T08:22:27.020Z,16.76
2023-05-21T08:23:26.772Z,16.9
2023-05-21T08:24:26.779Z,17.04
2023-05-21T08:25:26.761Z,17.27
2023-05-21T08:26:26.782Z,17.33
2023-05-21T08:27:27.229Z,17.42
2023-05-21T08:28:26.760Z,17.36
2023-05-21T08:29:26.769Z,17.41
2023-05-21T08:30:26.767Z,17.17
2023-05-21T08:31:26.775Z,17.17
2023-05-21T08:32:26.946Z,17.11
2023-05-21T08:33:26.763Z,17.01
2023-05-21T08:34:26.794Z,16.85
2023-05-21T08:35:26.764Z,16.97
2023-05-21T08:36:27.053Z,17.07
2023-05-21T08:37:29.844Z,17.17
2023-05-21T08:38:32.226Z,17.12
2023-05-21T08:40:26.765Z,17.23
2023-05-21T08:41:26.762Z,17.24
2023-05-21T08:43:26.765Z,17.22
2023-05-21T08:44:26.783Z,17.45
2023-05-21T08:45:26.773Z,17.5
2023-05-21T08:46:26.814Z,17.58
2023-05-21T08:47:27.067Z,17.38
2023-05-21T08:48:26.761Z,16.86
2023-05-21T08:49:27.780Z,16.77
2023-05-21T08:50:26.813Z,16.88
2023-05-21T08:51:26.766Z,16.81
2023-05-21T08:52:27.099Z,16.76
2023-05-21T08:53:28.892Z,16.75
2023-05-21T08:54:26.781Z,16.92
2023-05-21T08:55:26.784Z,16.98
2023-05-21T08:56:26.775Z,16.99
2023-05-21T08:57:27.147Z,16.97
2023-05-21T08:58:29.981Z,17
2023-05-21T08:59:32.327Z,17.19
2023-05-21T09:01:27.809Z,17.21
2023-05-21T09:02:27.156Z,17.3
2023-05-21T09:03:26.820Z,17.34
2023-05-21T09:04:27.192Z,17.59
2023-05-21T09:05:26.802Z,17.63
2023-05-21T09:06:26.763Z,17.71
2023-05-21T09:07:27.023Z,17.68
2023-05-21T09:08:26.769Z,17.66
2023-05-21T09:09:26.772Z,17.62
2023-05-21T09:10:26.763Z,17.72
2023-05-21T09:11:26.764Z,17.61
2023-05-21T09:12:27.131Z,17.54
2023-05-21T09:13:26.757Z,17.51
2023-05-21T09:14:26.792Z,17.44
2023-05-21T09:15:26.768Z,17.42
2023-05-21T09:16:26.780Z,17.46
2023-05-21T09:17:27.251Z,17.54
2023-05-21T09:18:27.194Z,17.46
2023-05-21T09:19:30.200Z,17.61
2023-05-21T09:20:32.453Z,17.63
2023-05-21T09:22:27.181Z,17.86
2023-05-21T09:23:26.756Z,17.99
2023-05-21T09:24:26.979Z,18.05
2023-05-21T09:25:26.753Z,18.21
2023-05-21T09:26:27.030Z,18.14
2023-05-21T09:27:27.224Z,18.16
2023-05-21T09:28:26.798Z,18.4
2023-05-21T09:29:26.770Z,18.67
2023-05-21T09:30:31.215Z,18.54
2023-05-21T09:31:26.806Z,18.45
2023-05-21T09:32:27.109Z,18.38
2023-05-21T09:33:26.788Z,18.35
2023-05-21T09:34:26.760Z,18.46
2023-05-21T09:35:26.793Z,18.61
2023-05-21T09:36:26.776Z,18.88
2023-05-21T09:37:28.111Z,19.03
2023-05-21T09:38:26.767Z,19.12
2023-05-21T09:39:26.788Z,19.03
2023-05-21T09:40:30.151Z,19.06
2023-05-21T09:41:32.498Z,19.19
2023-05-21T09:43:26.756Z,19.17
2023-05-21T09:44:26.762Z,19.24
2023-05-21T09:45:26.765Z,19.23
2023-05-21T09:46:26.825Z,19.31
2023-05-21T09:47:27.029Z,19.22
2023-05-21T09:48:26.761Z,19.25
2023-05-21T09:49:26.815Z,19.63
2023-05-21T09:50:27.159Z,19.91
2023-05-21T09:51:26.758Z,20.05
2023-05-21T09:52:26.965Z,20.18
2023-05-21T09:53:26.756Z,19.94
2023-05-21T09:54:26.767Z,19.99
2023-05-21T09:55:26.785Z,20.19
2023-05-21T09:56:26.761Z,20.33
2023-05-21T09:57:26.994Z,20.23
2023-05-21T09:58:26.750Z,20.36
2023-05-21T09:59:26.759Z,20.48
2023-05-21T10:00:26.956Z,20.3
2023-05-21T10:01:30.252Z,20.05
2023-05-21T10:02:32.619Z,19.8
2023-05-21T10:04:26.777Z,19.93
2023-05-21T10:05:26.779Z,19.97
2023-05-21T10:06:26.783Z,19.53
2023-05-21T10:07:27.304Z,19.63
2023-05-21T10:08:26.758Z,19.75
2023-05-21T10:09:26.759Z,20.04
2023-05-21T10:10:26.783Z,20.35
2023-05-21T10:11:26.865Z,20.61
2023-05-21T10:12:27.036Z,20.35
2023-05-21T10:13:26.761Z,20.08
2023-05-21T10:14:26.765Z,20
2023-05-21T10:15:26.766Z,20.03
2023-05-21T10:16:26.792Z,20.03
2023-05-21T10:17:27.122Z,20.04
2023-05-21T10:18:26.824Z,20.08
2023-05-21T10:19:26.911Z,20.04
2023-05-21T10:20:26.763Z,20.23
2023-05-21T10:21:26.954Z,20.12
2023-05-21T10:22:30.414Z,20.34
2023-05-21T10:23:32.789Z,20.49
2023-05-21T10:25:26.791Z,20.97
2023-05-21T10:26:26.767Z,20.74
2023-05-21T10:27:27.018Z,20.73
2023-05-21T10:28:26.755Z,20.44
2023-05-21T10:29:26.762Z,20.55
2023-05-21T10:30:26.777Z,20.43
2023-05-21T10:31:26.755Z,20.35
2023-05-21T10:32:27.167Z,20.49
2023-05-21T10:33:26.806Z,20.61
2023-05-21T10:34:26.762Z,20.42
2023-05-21T10:35:26.759Z,20.57
2023-05-21T10:36:26.749Z,20.76
2023-05-21T10:37:27.023Z,20.99
2023-05-21T10:38:26.778Z,21.04
2023-05-21T10:39:26.950Z,21.11
2023-05-21T10:40:26.765Z,21.35
2023-05-21T10:41:26.783Z,21.27
2023-05-21T10:42:27.175Z,21.42
2023-05-21T10:43:30.510Z,21.45
2023-05-21T10:44:33.012Z,21.22
2023-05-21T10:46:26.760Z,21.02
2023-05-21T10:47:27.199Z,21.08
2023-05-21T10:48:26.763Z,20.91
2023-05-21T10:49:26.770Z,21.17
2023-05-21T10:50:26.766Z,21.14
2023-05-21T10:51:26.765Z,21.14
2023-05-21T10:52:27.024Z,21.27
2023-05-21T10:53:26.762Z,21.16
2023-05-21T10:54:26.939Z,21.12
2023-05-21T10:55:26.800Z,20.82
2023-05-21T10:56:26.768Z,20.65
2023-05-21T10:57:27.147Z,20.86
2023-05-21T10:58:27.996Z,20.95
2023-05-21T10:59:26.758Z,21.19
2023-05-21T11:00:26.772Z,21.06
2023-05-21T11:01:26.813Z,20.97
2023-05-21T11:02:27.211Z,20.98
2023-05-21T11:03:27.341Z,20.96
2023-05-21T11:04:29.996Z,21.1
2023-05-21T11:05:29.178Z,21.1
2023-05-21T11:06:33.117Z,21.35
2023-05-21T11:08:26.778Z,21.45
2023-05-21T11:09:26.774Z,21.56
2023-05-21T11:10:26.785Z,21.74
2023-05-21T11:11:26.758Z,21.66
2023-05-21T11:12:27.069Z,21.72
2023-05-21T11:13:26.754Z,21.71
2023-05-21T11:14:26.762Z,21.86
2023-05-21T11:15:26.823Z,22.09
2023-05-21T11:16:26.833Z,22.2
2023-05-21T11:17:26.869Z,22.13
2023-05-21T11:18:26.761Z,21.91
2023-05-21T11:19:26.837Z,21.6
2023-05-21T11:20:26.771Z,21.6
2023-05-21T11:21:26.772Z,21.21
2023-05-21T11:22:27.213Z,21.3
2023-05-21T11:23:26.767Z,21.29
2023-05-21T11:24:26.755Z,21.61
2023-05-21T11:25:27.370Z,21.63
2023-05-21T11:26:30.695Z,21.52
2023-05-21T11:27:33.916Z,21.41
2023-05-21T11:29:26.768Z,21.47
2023-05-21T11:30:26.787Z,21.53
2023-05-21T11:31:26.791Z,21.51
2023-05-21T11:32:27.105Z,21.58
2023-05-21T11:33:26.760Z,21.54
2023-05-21T11:34:26.760Z,21.43
2023-05-21T11:35:26.799Z,21.44
2023-05-21T11:36:26.769Z,21.29
2023-05-21T11:37:27.044Z,21.18
2023-05-21T11:38:26.759Z,21.32
2023-05-21T11:39:26.765Z,21.24
2023-05-21T11:40:26.819Z,21.34
2023-05-21T11:41:26.760Z,21.47
2023-05-21T11:42:27.128Z,21.29
2023-05-21T11:43:26.773Z,21.33
2023-05-21T11:44:26.750Z,21.44
2023-05-21T11:45:26.782Z,21.44
2023-05-21T11:46:27.338Z,21.61
2023-05-21T11:47:30.821Z,21.77
2023-05-21T11:48:33.847Z,21.85
2023-05-21T11:50:26.794Z,21.87
2023-05-21T11:51:26.759Z,21.67
2023-05-21T11:52:27.078Z,21.59
2023-05-21T11:53:26.765Z,21.6
2023-05-21T11:54:26.775Z,21.63
2023-05-21T11:55:26.780Z,21.5
2023-05-21T11:56:26.761Z,21.45
2023-05-21T11:57:27.089Z,21.4
2023-05-21T11:58:26.772Z,21.45
2023-05-21T11:59:26.788Z,21.5
2023-05-21T12:00:26.767Z,21.48
2023-05-21T12:01:26.760Z,21.58
2023-05-21T12:02:27.062Z,21.84
2023-05-21T12:03:27.084Z,21.96
2023-05-21T12:04:26.777Z,22.21
2023-05-21T12:05:26.758Z,22.21
2023-05-21T12:06:26.875Z,22.27
2023-05-21T12:07:27.472Z,22.25
2023-05-21T12:08:30.892Z,22.29
2023-05-21T12:09:33.907Z,22.24
2023-05-21T12:11:26.824Z,22.78
2023-05-21T12:12:29.334Z,23.08
2023-05-21T12:13:26.776Z,22.99
2023-05-21T12:14:26.805Z,22.91
2023-05-21T12:15:26.784Z,22.88
2023-05-21T12:16:26.800Z,22.89
2023-05-21T12:17:27.029Z,22.6
2023-05-21T12:18:26.806Z,22.63
2023-05-21T12:19:26.840Z,22.85
2023-05-21T12:20:26.770Z,22.72
2023-05-21T12:21:26.775Z,22.62
2023-05-21T12:22:27.046Z,22.7
2023-05-21T12:23:26.753Z,22.73
2023-05-21T12:24:26.765Z,22.88
2023-05-21T12:25:26.764Z,22.96
2023-05-21T12:26:26.768Z,23.08
2023-05-21T12:27:27.089Z,23.12
2023-05-21T12:28:27.537Z,23.24
2023-05-21T12:29:31.062Z,23.27
2023-05-21T12:30:34.083Z,23.34
2023-05-21T12:32:27.098Z,23.45
2023-05-21T12:33:26.763Z,23.46
2023-05-21T12:34:26.777Z,23.23
2023-05-21T12:35:26.904Z,22.9
2023-05-21T12:36:26.762Z,22.74
2023-05-21T12:37:27.113Z,22.87
2023-05-21T12:38:26.797Z,22.85
2023-05-21T12:39:26.871Z,23.04
2023-05-21T12:40:26.773Z,23.16
2023-05-21T12:41:26.767Z,23.2
2023-05-21T12:42:26.777Z,23.13
2023-05-21T12:43:26.754Z,22.96
2023-05-21T12:44:26.823Z,22.93
2023-05-21T12:45:26.766Z,22.97
2023-05-21T12:46:26.847Z,23.11
2023-05-21T12:47:26.841Z,23.44
2023-05-21T12:48:26.766Z,23.55
2023-05-21T12:49:27.713Z,23.66
2023-05-21T12:50:31.192Z,23.39
2023-05-21T12:51:34.191Z,23.36
2023-05-21T12:53:26.753Z,23.49
2023-05-21T12:54:26.842Z,23.5
2023-05-21T12:55:26.759Z,23.4
2023-05-21T12:56:26.762Z,23.57
2023-05-21T12:57:26.760Z,23.64
2023-05-21T12:58:26.765Z,23.93
2023-05-21T12:59:26.912Z,24.06
2023-05-21T13:00:26.969Z,24.27
2023-05-21T13:01:26.772Z,24.25
2023-05-21T13:02:26.807Z,24.22
2023-05-21T13:03:26.868Z,24.42
2023-05-21T13:04:26.855Z,24.53
2023-05-21T13:05:26.759Z,24.92
2023-05-21T13:06:26.822Z,25.19
2023-05-21T13:07:26.754Z,25.44
2023-05-21T13:08:26.770Z,25.3
2023-05-21T13:09:26.784Z,25.15
2023-05-21T13:10:27.845Z,25.09
2023-05-21T13:11:31.271Z,25.15
2023-05-21T13:12:34.294Z,25.11
2023-05-21T13:14:26.847Z,25.06
2023-05-21T13:15:26.783Z,25.06
2023-05-21T13:16:26.777Z,25.15
2023-05-21T13:17:26.792Z,25.07
2023-05-21T13:18:26.798Z,25.06
2023-05-21T13:19:26.866Z,25.35
2023-05-21T13:20:26.761Z,25.09
2023-05-21T13:21:26.762Z,25.11
2023-05-21T13:22:26.756Z,24.91
2023-05-21T13:23:26.767Z,24.48
2023-05-21T13:24:26.762Z,24.28
2023-05-21T13:25:26.762Z,24.22
2023-05-21T13:26:26.763Z,24.15
2023-05-21T13:27:26.750Z,24.09
2023-05-21T13:28:26.771Z,24.17
2023-05-21T13:29:26.761Z,24.31